Terminal Aerodrome Forecast
Issued by NWS Duluth, MN

Home | Current Version | Previous Version | Text Only | Print | Product List | Glossary On
Versions: 1 2 3 4 5 6 7 8 9 10 11 12 13 14 15 16 17 18 19 20 21 22
000
FTUS43 KDLH 250700 AAA
TAFDLH
TAF AMD
KDLH 250728Z 2507/2606 24010KT P6SM BKN013 OVC060
     FM251000 24009KT 6SM BR OVC009
     FM252000 28007KT P6SM OVC015
     FM260100 31005KT 6SM -SN OVC015=

USA.gov is the U.S. government's official web portal to all federal, state and local government web resources and services.